General Aviation Weather

Text Reports

Enter one or more of the following location identifiers separated by a space:

Zip Code, Four-Character ICAO or Three-Character IATA airport codes.

METAR - Aviation Routine Weather Report
KCEU - Clemson, South Carolina
Updated at 1:54 PM GMT on February 28, 2015 (8:54 AM EST):
METAR KCEU 281354Z AUTO 07009G16KT 10SM CLR 02/M11 A3067 RMK AO2 SLP389 T00221106 $
TAF - Terminal Area Forecast
KCEU - Clemson, South Carolina
Updated at 1:54 PM GMT on February 28, 2015 (8:54 AM EST):
No TAF is currently available for this location.
Decoded:
No decoded TAF is available.
PIREP - Pilot Weather Report
KCEU - Clemson, South Carolina
Updated at 1:54 PM GMT on February 28, 2015 (8:54 AM EST):
No PIREP is currently available for this location.
AIRMET - Airmens Meteorological Information
KCEU - Clemson, South Carolina
Updated at 1:54 PM GMT on February 28, 2015 (8:54 AM EST):
No AIRMET is currently available for this location.
SIGMET - Significant Meteorological Information
KCEU - Clemson, South Carolina
Updated at 1:54 PM GMT on February 28, 2015 (8:54 AM EST):
No SIGMET is currently available for this location.
NOTAM - Notice to Airmen
KCEU - Clemson, South Carolina
Updated at 1:54 PM GMT on February 28, 2015 (8:54 AM EST):
No NOTAM is currently available for this location.
Forecast Area
KCEU - Clemson, South Carolina
Updated at 1:54 PM GMT on February 28, 2015 (8:54 AM EST):
No NOTAM is currently available for this location.
Aviation Weather Maps